Time;durP1;ratioP1;P1;durP2;ratioP2;P2;SDS_P1;SDS_P2;PMS_P1;PMS_P2;Temp;Humidity;BMP_temperature;BMP_pressure;BME280_temperature;BME280_humidity;BME280_pressure;Samples;Min_cycle;Max_cycle;Signal;HPM_P1;HPM_P2
2022/04/11 00:02:20;;;;;;;17.08;7.93;;;0.30;99.90;;;;;;4987951;28;20105;-62
2022/04/11 00:04:46;;;;;;;17.33;8.38;;;0.30;99.90;;;;;;4985364;28;20034;-61
2022/04/11 00:07:11;;;;;;;15.68;7.50;;;0.20;99.90;;;;;;4985864;28;20062;-61
2022/04/11 00:09:37;;;;;;;17.35;8.65;;;0.20;99.90;;;;;;4988109;28;20101;-61
2022/04/11 00:12:03;;;;;;;20.17;8.43;;;0.20;99.90;;;;;;4987024;28;20113;-61
2022/04/11 00:14:29;;;;;;;19.83;8.73;;;0.20;99.90;;;;;;4984872;28;20027;-61
2022/04/11 00:16:54;;;;;;;23.00;9.23;;;0.20;99.90;;;;;;4986279;28;20137;-61
2022/04/11 00:19:20;;;;;;;19.08;9.10;;;0.20;99.90;;;;;;4987485;28;20068;-61
2022/04/11 00:21:45;;;;;;;20.13;8.52;;;0.20;99.90;;;;;;4985840;28;20089;-61
2022/04/11 00:24:11;;;;;;;23.65;9.15;;;0.10;99.90;;;;;;4988769;28;20045;-61
2022/04/11 00:26:37;;;;;;;19.25;8.68;;;0.10;99.90;;;;;;4987078;28;20543;-61
2022/04/11 00:29:02;;;;;;;18.95;8.70;;;0.10;99.90;;;;;;4988239;28;20483;-61
2022/04/11 00:31:31;;;;;;;18.92;8.68;;;0.00;99.90;;;;;;4984024;28;20041;-61
2022/04/11 00:33:56;;;;;;;19.02;8.95;;;0.10;99.90;;;;;;4987097;28;20042;-61
2022/04/11 00:36:22;;;;;;;18.55;8.75;;;0.00;99.90;;;;;;4985042;28;20041;-62
2022/04/11 00:38:48;;;;;;;21.38;8.85;;;0.00;99.90;;;;;;4986985;28;20080;-61
2022/04/11 00:41:14;;;;;;;18.23;9.15;;;0.00;99.90;;;;;;4987506;28;20034;-61
2022/04/11 00:43:40;;;;;;;19.23;8.25;;;0.00;99.90;;;;;;4984769;28;20042;-61
2022/04/11 00:46:07;;;;;;;23.40;8.82;;;0.00;99.90;;;;;;4985557;28;20484;-61
2022/04/11 00:48:34;;;;;;;18.63;8.32;;;0.00;99.90;;;;;;4983358;28;20049;-61
2022/04/11 00:51:23;;;;;;;16.83;8.35;;;0.00;99.90;;;;;;4985285;28;20030;-61
2022/04/11 00:53:51;;;;;;;18.67;7.88;;;-0.10;99.90;;;;;;4985358;28;20081;-61
2022/04/11 00:56:18;;;;;;;14.13;7.18;;;-0.10;99.90;;;;;;4985022;28;20030;-61
2022/04/11 00:58:45;;;;;;;20.23;8.30;;;-0.10;99.90;;;;;;4985130;28;20050;-61
2022/04/11 01:01:11;;;;;;;15.98;7.15;;;-0.20;99.90;;;;;;4986775;28;20758;-60
2022/04/11 01:03:37;;;;;;;17.77;8.02;;;-0.20;99.90;;;;;;4985900;28;20153;-61
2022/04/11 01:06:03;;;;;;;14.80;7.50;;;-0.20;99.90;;;;;;4986855;28;20050;-61
2022/04/11 01:08:29;;;;;;;20.20;7.63;;;-0.20;99.90;;;;;;4998401;28;20476;-61
2022/04/11 01:10:55;;;;;;;17.20;7.53;;;-0.20;99.90;;;;;;4986149;28;20527;-61
2022/04/11 01:13:21;;;;;;;15.90;7.57;;;-0.20;99.90;;;;;;4987950;28;20444;-61
2022/04/11 01:15:54;;;;;;;21.27;8.05;;;-0.20;99.90;;;;;;4981545;28;20038;-61
2022/04/11 01:18:19;;;;;;;17.13;7.85;;;-0.20;99.90;;;;;;4984259;28;20041;-61
2022/04/11 01:20:45;;;;;;;16.98;7.22;;;-0.30;99.90;;;;;;4985876;28;20045;-61
2022/04/11 01:23:10;;;;;;;16.02;7.65;;;-0.30;99.90;;;;;;4983482;28;20058;-61
2022/04/11 01:25:37;;;;;;;17.17;7.30;;;-0.30;99.90;;;;;;4987182;28;20030;-61
2022/04/11 01:28:04;;;;;;;15.32;7.10;;;-0.30;99.90;;;;;;4985106;28;20027;-61
2022/04/11 01:30:29;;;;;;;17.13;8.02;;;-0.30;99.90;;;;;;4985500;28;20032;-61
2022/04/11 01:32:55;;;;;;;17.45;7.68;;;-0.30;99.90;;;;;;4986017;28;20023;-61
2022/04/11 01:35:26;;;;;;;16.58;7.55;;;-0.40;99.90;;;;;;4986081;28;20467;-61
2022/04/11 01:37:52;;;;;;;;;;;-0.40;99.90;;;;;;4981955;28;20109;-61
2022/04/11 01:40:18;;;;;;;14.88;6.88;;;-0.40;99.90;;;;;;4987827;28;20270;-61
2022/04/11 01:42:44;;;;;;;14.80;7.35;;;-0.30;99.90;;;;;;4984707;28;20018;-61
2022/04/11 01:45:11;;;;;;;16.58;6.93;;;-0.40;99.90;;;;;;4986232;28;20051;-61
2022/04/11 01:47:41;;;;;;;15.60;7.78;;;-0.40;99.90;;;;;;4982975;28;20541;-61
2022/04/11 01:50:08;;;;;;;17.20;7.68;;;-0.30;99.90;;;;;;4985081;28;20038;-61
2022/04/11 01:52:34;;;;;;;16.20;7.63;;;-0.40;99.90;;;;;;4985596;28;20046;-61
2022/04/11 01:55:02;;;;;;;15.60;7.63;;;-0.40;99.90;;;;;;4985759;28;20133;-61
2022/04/11 01:57:27;;;;;;;14.98;7.22;;;-0.40;99.90;;;;;;4985232;28;21823;-61
2022/04/11 01:59:53;;;;;;;19.45;7.70;;;-0.40;99.90;;;;;;4983496;28;20030;-61
2022/04/11 02:02:19;;;;;;;16.98;8.02;;;-0.40;99.90;;;;;;4985550;28;20034;-61
2022/04/11 02:04:44;;;;;;;14.38;7.50;;;-0.40;99.90;;;;;;4981055;28;20280;-61
2022/04/11 02:07:10;;;;;;;18.40;7.93;;;-0.40;99.90;;;;;;4984863;28;20121;-61
2022/04/11 02:09:35;;;;;;;23.02;8.27;;;-0.40;99.90;;;;;;4985336;28;20035;-61
2022/04/11 02:12:01;;;;;;;18.63;8.57;;;-0.40;99.90;;;;;;4984700;28;20026;-61
2022/04/11 02:14:27;;;;;;;15.35;7.90;;;-0.50;99.90;;;;;;4985770;28;20121;-61
2022/04/11 02:16:52;;;;;;;18.08;7.43;;;-0.50;99.90;;;;;;4986185;28;20041;-61
2022/04/11 02:19:18;;;;;;;18.15;7.43;;;-0.50;99.90;;;;;;4987440;28;20038;-61
2022/04/11 02:21:44;;;;;;;21.67;9.15;;;-0.40;99.90;;;;;;4986579;28;20085;-61
2022/04/11 02:24:09;;;;;;;15.77;7.55;;;-0.50;99.90;;;;;;4990591;28;20030;-61
2022/04/11 02:26:35;;;;;;;17.50;8.27;;;-0.40;99.90;;;;;;4988449;28;20034;-61
2022/04/11 02:29:01;;;;;;;16.75;7.82;;;-0.50;99.90;;;;;;4984195;28;20046;-61
2022/04/11 02:31:27;;;;;;;17.23;8.05;;;-0.40;99.90;;;;;;4987484;28;20066;-61
2022/04/11 02:33:52;;;;;;;18.05;7.75;;;-0.40;99.90;;;;;;4989521;28;20038;-61
2022/04/11 02:36:18;;;;;;;19.75;7.93;;;-0.30;99.90;;;;;;4989866;28;20097;-61
2022/04/11 02:38:44;;;;;;;17.48;7.95;;;-0.30;99.90;;;;;;4987675;28;20798;-61
2022/04/11 02:41:09;;;;;;;17.45;8.18;;;-0.30;99.90;;;;;;4988242;28;20041;-61
2022/04/11 02:43:35;;;;;;;16.88;8.32;;;-0.30;99.90;;;;;;4987842;28;20054;-61
2022/04/11 02:46:01;;;;;;;16.55;8.05;;;-0.30;99.90;;;;;;4990713;28;20045;-61
2022/04/11 02:48:27;;;;;;;17.52;8.27;;;-0.30;99.90;;;;;;4987991;28;20070;-61
2022/04/11 02:50:53;;;;;;;17.80;8.77;;;-0.40;99.90;;;;;;4980434;28;20054;-61
2022/04/11 02:53:19;;;;;;;21.70;9.35;;;-0.30;99.90;;;;;;4985722;28;20568;-61
2022/04/11 02:55:45;;;;;;;17.65;8.38;;;-0.40;99.90;;;;;;4988313;28;20034;-61
2022/04/11 02:58:10;;;;;;;19.33;8.95;;;-0.30;99.90;;;;;;4989004;28;20594;-61
2022/04/11 03:00:36;;;;;;;20.15;8.65;;;-0.30;99.90;;;;;;4988131;28;20034;-61
2022/04/11 03:03:02;;;;;;;21.10;9.00;;;-0.30;99.90;;;;;;4988067;28;20034;-61
2022/04/11 03:05:28;;;;;;;16.92;8.32;;;-0.30;99.90;;;;;;4988850;28;20034;-61
2022/04/11 03:07:53;;;;;;;22.60;9.13;;;-0.40;99.90;;;;;;4989609;28;20034;-61
2022/04/11 03:10:19;;;;;;;20.77;8.38;;;-0.40;99.90;;;;;;4987150;28;20085;-61
2022/04/11 03:12:45;;;;;;;19.50;8.38;;;-0.40;99.90;;;;;;4983713;28;20030;-61
2022/04/11 03:15:10;;;;;;;20.90;8.90;;;-0.40;99.90;;;;;;4988836;28;20034;-61
2022/04/11 03:17:36;;;;;;;17.70;8.10;;;-0.40;99.90;;;;;;4988058;28;20038;-61
2022/04/11 03:20:03;;;;;;;17.30;8.68;;;-0.40;99.90;;;;;;4988657;28;20101;-61
2022/04/11 03:22:29;;;;;;;18.58;8.10;;;-0.40;99.90;;;;;;4987674;28;20041;-61
2022/04/11 03:24:54;;;;;;;20.05;9.05;;;-0.40;99.90;;;;;;4990005;28;20077;-61
2022/04/11 03:27:20;;;;;;;19.08;8.00;;;-0.40;99.90;;;;;;4989872;28;20455;-61
2022/04/11 03:29:46;;;;;;;19.77;9.10;;;-0.40;99.90;;;;;;4990987;28;20069;-61
2022/04/11 03:32:11;;;;;;;20.63;8.85;;;-0.30;99.90;;;;;;4974077;28;20034;-61
2022/04/11 03:34:38;;;;;;;18.50;8.73;;;-0.30;99.90;;;;;;4989900;28;20038;-61
2022/04/11 03:37:04;;;;;;;20.35;8.88;;;-0.20;99.90;;;;;;4984617;28;20468;-61
2022/04/11 03:39:30;;;;;;;20.63;9.48;;;-0.20;99.90;;;;;;4987089;28;20018;-61
2022/04/11 03:41:56;;;;;;;24.98;9.40;;;-0.20;99.90;;;;;;4991552;28;20061;-61
2022/04/11 03:44:22;;;;;;;26.45;9.90;;;-0.10;99.90;;;;;;4984718;28;20061;-61
2022/04/11 03:46:47;;;;;;;23.30;10.05;;;0.10;99.90;;;;;;4990171;28;20070;-61
2022/04/11 03:49:13;;;;;;;22.83;9.70;;;0.30;99.90;;;;;;4991258;28;20045;-61
2022/04/11 03:51:38;;;;;;;23.02;10.80;;;0.40;99.90;;;;;;4988727;28;20027;-61
2022/04/11 03:54:04;;;;;;;19.42;9.30;;;0.50;99.90;;;;;;4990955;28;20034;-61
2022/04/11 03:56:30;;;;;;;21.10;9.27;;;0.60;99.90;;;;;;4989725;28;20037;-61
2022/04/11 03:58:56;;;;;;;20.15;8.55;;;0.80;99.90;;;;;;4989013;28;20439;-61
2022/04/11 04:01:21;;;;;;;19.25;8.65;;;0.80;99.90;;;;;;4992380;28;20037;-61
2022/04/11 04:03:47;;;;;;;21.77;8.85;;;0.60;99.90;;;;;;4989862;28;20050;-61
2022/04/11 04:06:13;;;;;;;18.83;8.52;;;0.60;99.90;;;;;;4989713;28;20510;-61
2022/04/11 04:08:39;;;;;;;21.80;9.80;;;0.50;99.90;;;;;;4989129;28;20061;-61
2022/04/11 04:11:04;;;;;;;20.95;9.95;;;0.50;99.90;;;;;;4990420;28;20525;-61
2022/04/11 04:13:33;;;;;;;17.92;8.60;;;0.40;99.90;;;;;;4989514;28;20384;-61
2022/04/11 04:15:58;;;;;;;20.38;9.52;;;0.30;99.90;;;;;;4987400;28;20042;-61
2022/04/11 04:18:24;;;;;;;20.45;8.93;;;0.20;99.90;;;;;;4990580;28;20038;-62
2022/04/11 04:20:50;;;;;;;19.98;9.45;;;0.20;99.90;;;;;;4988806;28;20472;-62
2022/04/11 04:23:17;;;;;;;19.35;8.82;;;0.20;99.90;;;;;;4989497;28;20038;-61
2022/04/11 04:25:42;;;;;;;16.95;9.02;;;0.10;99.90;;;;;;4988878;28;20035;-61
2022/04/11 04:28:08;;;;;;;18.52;8.60;;;0.10;99.90;;;;;;4988632;28;20034;-62
2022/04/11 04:30:34;;;;;;;19.60;8.20;;;0.10;99.90;;;;;;4988744;28;20030;-62
2022/04/11 04:33:00;;;;;;;20.65;8.65;;;0.00;99.90;;;;;;4988704;28;20026;-61
2022/04/11 04:35:27;;;;;;;17.52;8.57;;;0.10;99.90;;;;;;4989434;28;20034;-61
2022/04/11 04:37:53;;;;;;;19.20;9.35;;;0.00;99.90;;;;;;4989400;28;20109;-61
2022/04/11 04:40:19;;;;;;;18.70;8.57;;;0.00;99.90;;;;;;4989204;28;20034;-61
2022/04/11 04:42:45;;;;;;;20.27;9.40;;;0.00;99.90;;;;;;4987707;28;20062;-61
2022/04/11 04:45:12;;;;;;;19.95;9.18;;;0.00;99.90;;;;;;4988611;28;20429;-61
2022/04/11 04:47:39;;;;;;;28.25;10.93;;;-0.10;99.90;;;;;;4987580;28;20480;-61
2022/04/11 04:50:05;;;;;;;26.13;10.95;;;-0.10;99.90;;;;;;4989178;28;20370;-61
2022/04/11 04:52:31;;;;;;;34.70;13.55;;;-0.10;99.90;;;;;;4987405;28;20038;-61
2022/04/11 04:54:56;;;;;;;41.15;16.13;;;-0.10;99.90;;;;;;4988622;28;20026;-62
2022/04/11 04:57:22;;;;;;;22.17;10.05;;;-0.10;99.90;;;;;;4988938;28;20041;-61
2022/04/11 04:59:48;;;;;;;25.98;10.57;;;-0.10;99.90;;;;;;4987735;28;20039;-61
2022/04/11 05:02:14;;;;;;;33.90;13.40;;;-0.10;99.90;;;;;;4983268;28;20061;-61
2022/04/11 05:04:39;;;;;;;48.90;16.23;;;0.00;99.90;;;;;;4985464;28;20026;-63
2022/04/11 05:07:05;;;;;;;39.15;14.55;;;0.00;99.90;;;;;;4988273;28;20206;-61
2022/04/11 05:09:31;;;;;;;41.47;15.48;;;0.00;99.90;;;;;;4986680;28;20045;-61
2022/04/11 05:11:57;;;;;;;42.95;17.58;;;0.00;99.90;;;;;;4987480;28;20651;-61
2022/04/11 05:14:22;;;;;;;91.03;29.58;;;0.00;99.90;;;;;;4986165;28;20075;-61
2022/04/11 05:16:48;;;;;;;28.55;12.95;;;0.00;99.90;;;;;;4986932;28;20035;-61
2022/04/11 05:19:14;;;;;;;25.42;11.98;;;0.00;99.90;;;;;;4986344;28;20392;-61
2022/04/11 05:21:39;;;;;;;37.78;16.35;;;0.00;99.90;;;;;;4986786;28;20452;-61
2022/04/11 05:24:05;;;;;;;42.97;18.55;;;0.00;99.90;;;;;;4987759;28;21719;-61
2022/04/11 05:26:31;;;;;;;38.22;16.58;;;0.10;99.90;;;;;;4985920;28;20038;-62
2022/04/11 05:28:57;;;;;;;37.17;15.25;;;0.20;99.90;;;;;;4984296;28;20046;-61
2022/04/11 05:31:23;;;;;;;34.72;16.52;;;0.20;99.90;;;;;;4985464;28;20041;-62
2022/04/11 05:33:49;;;;;;;33.40;14.82;;;0.30;99.90;;;;;;4982476;28;20019;-62
2022/04/11 05:36:14;;;;;;;26.40;13.63;;;0.40;99.90;;;;;;4985588;28;20108;-62
2022/04/11 05:38:40;;;;;;;26.10;12.68;;;0.40;99.90;;;;;;4985295;28;20030;-61
2022/04/11 05:41:06;;;;;;;28.75;13.40;;;0.50;99.90;;;;;;4986190;28;20092;-61
2022/04/11 05:43:32;;;;;;;24.92;12.90;;;0.60;99.90;;;;;;4986849;28;20061;-62
2022/04/11 05:45:59;;;;;;;25.02;11.20;;;0.60;99.90;;;;;;4984357;28;20558;-63
2022/04/11 05:48:25;;;;;;;23.38;10.35;;;0.80;99.90;;;;;;4982436;28;20088;-61
2022/04/11 05:50:51;;;;;;;22.17;10.10;;;0.80;99.90;;;;;;4986886;28;20125;-62
2022/04/11 05:53:18;;;;;;;25.00;11.45;;;0.80;99.90;;;;;;4986566;28;20045;-61
2022/04/11 05:55:44;;;;;;;24.10;11.05;;;0.90;99.90;;;;;;4984377;28;20023;-62
2022/04/11 05:58:10;;;;;;;22.98;10.20;;;1.00;99.90;;;;;;4986097;28;20188;-62
2022/04/11 06:00:35;;;;;;;25.50;10.45;;;1.10;99.90;;;;;;4988055;28;21157;-62
2022/04/11 06:03:01;;;;;;;22.65;10.63;;;1.10;99.90;;;;;;4988193;28;20034;-61
2022/04/11 06:05:27;;;;;;;29.10;10.30;;;1.20;99.90;;;;;;4987453;28;20088;-62
2022/04/11 06:07:52;;;;;;;25.10;10.30;;;1.30;99.90;;;;;;4990552;28;20070;-62
2022/04/11 06:10:18;;;;;;;24.52;10.32;;;1.40;99.90;;;;;;4992664;28;20034;-63
2022/04/11 06:12:44;;;;;;;20.92;10.48;;;1.50;99.90;;;;;;4991550;28;20482;-63
2022/04/11 06:15:11;;;;;;;23.58;10.63;;;1.60;99.90;;;;;;4991924;28;20034;-63
2022/04/11 06:17:37;;;;;;;22.13;10.57;;;1.80;99.90;;;;;;4991708;28;20053;-63
2022/04/11 06:20:03;;;;;;;21.95;9.98;;;1.90;99.90;;;;;;4991675;28;20034;-63
2022/04/11 06:22:29;;;;;;;20.45;10.27;;;2.00;99.90;;;;;;4988397;28;20034;-65
2022/04/11 06:25:01;;;;;;;25.13;10.23;;;2.10;99.90;;;;;;4989270;28;20033;-65
2022/04/11 06:27:28;;;;;;;22.50;10.80;;;2.10;99.90;;;;;;4989988;28;20398;-63
2022/04/11 06:29:56;;;;;;;19.90;9.95;;;2.10;99.90;;;;;;4990921;28;20112;-64
2022/04/11 06:32:29;;;;;;;20.38;10.45;;;2.20;99.90;;;;;;4989067;28;20515;-62
2022/04/11 06:34:55;;;;;;;22.70;11.10;;;2.30;99.90;;;;;;4989856;28;20034;-62
2022/04/11 06:37:21;;;;;;;23.58;10.68;;;2.40;99.90;;;;;;4989214;28;20031;-64
2022/04/11 06:39:47;;;;;;;25.92;11.15;;;2.50;99.90;;;;;;4987643;28;20040;-64
2022/04/11 06:42:13;;;;;;;28.33;12.15;;;2.70;99.90;;;;;;4990491;28;20034;-65
2022/04/11 06:44:39;;;;;;;22.35;11.27;;;2.90;99.90;;;;;;4990850;28;20054;-63
2022/04/11 06:47:06;;;;;;;22.45;10.75;;;3.00;99.90;;;;;;4991051;28;20044;-63
2022/04/11 06:49:31;;;;;;;21.35;10.18;;;3.20;99.90;;;;;;4989391;28;20059;-64
2022/04/11 06:51:57;;;;;;;23.35;10.35;;;3.50;99.90;;;;;;4990627;28;20862;-64
2022/04/11 06:54:23;;;;;;;31.92;10.32;;;3.90;99.90;;;;;;4991734;28;20045;-65
2022/04/11 06:56:49;;;;;;;21.52;9.27;;;4.10;99.90;;;;;;4989887;28;20030;-65
2022/04/11 06:59:17;;;;;;;14.73;7.80;;;4.40;99.90;;;;;;4990257;28;20109;-66
2022/04/11 07:01:43;;;;;;;15.30;7.78;;;4.70;99.90;;;;;;4984931;28;20034;-65
2022/04/11 07:04:09;;;;;;;20.45;9.00;;;5.10;99.90;;;;;;4989059;28;20041;-64
2022/04/11 07:06:34;;;;;;;17.50;8.90;;;5.40;99.90;;;;;;4988853;28;20073;-64
2022/04/11 07:09:00;;;;;;;12.05;6.57;;;5.30;99.90;;;;;;4988771;28;20684;-65
2022/04/11 07:11:26;;;;;;;16.15;7.15;;;5.50;99.90;;;;;;4991714;28;20042;-65
2022/04/11 07:13:52;;;;;;;13.80;6.40;;;5.70;99.90;;;;;;4990841;28;20039;-65
2022/04/11 07:16:17;;;;;;;11.48;6.20;;;6.00;99.90;;;;;;4991303;28;20050;-68
2022/04/11 07:18:43;;;;;;;13.80;6.65;;;6.30;99.90;;;;;;4990051;28;20030;-63
2022/04/11 07:21:09;;;;;;;14.85;6.68;;;6.50;99.90;;;;;;4990930;28;20026;-64
2022/04/11 07:23:35;;;;;;;13.25;4.90;;;6.60;99.90;;;;;;4989470;28;20491;-65
2022/04/11 07:26:00;;;;;;;11.43;4.68;;;6.70;99.90;;;;;;4989843;28;20033;-63
2022/04/11 07:28:26;;;;;;;10.40;4.45;;;6.90;99.90;;;;;;4989277;28;20034;-65
2022/04/11 07:30:52;;;;;;;9.98;4.80;;;7.00;99.90;;;;;;4989901;28;20042;-63
2022/04/11 07:33:17;;;;;;;8.20;4.50;;;7.00;99.90;;;;;;4991570;28;20546;-64
2022/04/11 07:35:43;;;;;;;8.70;4.68;;;7.20;99.90;;;;;;4975360;28;20030;-65
2022/04/11 07:38:09;;;;;;;14.48;4.88;;;7.30;99.90;;;;;;4984337;28;20305;-65
2022/04/11 07:40:35;;;;;;;13.10;4.90;;;7.50;99.90;;;;;;4989587;28;20461;-65
2022/04/11 07:43:00;;;;;;;11.23;4.90;;;7.50;99.90;;;;;;4988154;28;20182;-64
2022/04/11 07:45:26;;;;;;;8.35;4.22;;;7.60;99.90;;;;;;4990004;28;20463;-64
2022/04/11 07:47:52;;;;;;;9.02;4.53;;;7.60;99.90;;;;;;4986932;28;20042;-66
2022/04/11 07:50:17;;;;;;;8.02;4.22;;;7.80;99.90;;;;;;4987879;28;20034;-68
2022/04/11 07:52:44;;;;;;;8.90;4.03;;;8.00;99.90;;;;;;4987007;28;20023;-74
2022/04/11 07:55:11;;;;;;;11.40;4.63;;;8.20;99.90;;;;;;4967744;28;20104;-72
2022/04/11 07:57:38;;;;;;;11.85;4.40;;;8.40;99.90;;;;;;4975023;28;20545;-74
2022/04/11 08:00:06;;;;;;;8.95;3.97;;;8.30;99.90;;;;;;4975511;28;20045;-76
2022/04/11 08:02:32;;;;;;;9.30;3.67;;;8.20;99.90;;;;;;4991522;28;20030;-73
2022/04/11 08:05:01;;;;;;;7.55;4.05;;;8.30;99.90;;;;;;4990776;28;20368;-73
2022/04/11 08:07:30;;;;;;;9.85;4.30;;;8.50;99.90;;;;;;4986449;28;20069;-72
2022/04/11 08:09:55;;;;;;;8.63;4.05;;;8.40;99.90;;;;;;4990052;28;20034;-72
2022/04/11 08:12:21;;;;;;;10.35;3.90;;;8.40;99.90;;;;;;4987302;28;20424;-73
2022/04/11 08:14:47;;;;;;;7.78;4.20;;;8.50;99.90;;;;;;4987294;28;20464;-73
2022/04/11 08:17:13;;;;;;;9.65;4.22;;;8.80;99.90;;;;;;4986830;28;20065;-72
2022/04/11 08:19:39;;;;;;;7.25;4.18;;;9.10;99.90;;;;;;4990101;28;20423;-71
2022/04/11 08:22:05;;;;;;;8.77;4.25;;;9.30;99.90;;;;;;4988312;28;20049;-71
2022/04/11 08:24:32;;;;;;;8.52;4.05;;;9.20;99.90;;;;;;4989945;28;20031;-74
2022/04/11 08:26:58;;;;;;;7.30;4.03;;;9.30;99.90;;;;;;4988970;28;20070;-71
2022/04/11 08:29:27;;;;;;;8.82;4.10;;;9.40;99.90;;;;;;4988765;28;20054;-71
2022/04/11 08:31:53;;;;;;;6.22;3.55;;;9.60;99.90;;;;;;4989453;28;20522;-70
2022/04/11 08:34:19;;;;;;;7.57;4.03;;;9.80;99.90;;;;;;4989042;28;20481;-71
2022/04/11 08:36:44;;;;;;;7.43;4.10;;;9.80;99.90;;;;;;4988883;28;20046;-72
2022/04/11 08:39:11;;;;;;;8.05;4.30;;;9.80;99.90;;;;;;4988519;28;20038;-71
2022/04/11 08:41:37;;;;;;;7.78;3.72;;;9.90;99.90;;;;;;4988253;28;20045;-71
2022/04/11 08:44:05;;;;;;;8.20;3.70;;;9.90;99.90;;;;;;4987920;28;20426;-71
2022/04/11 08:46:31;;;;;;;6.95;3.58;;;10.00;98.40;;;;;;4978116;28;20049;-71
2022/04/11 08:48:59;;;;;;;6.50;3.78;;;9.80;99.90;;;;;;4988342;28;20050;-71
2022/04/11 08:51:26;;;;;;;6.95;3.70;;;9.90;99.00;;;;;;4988779;28;20050;-70
2022/04/11 08:53:52;;;;;;;7.05;3.60;;;10.00;99.90;;;;;;4988636;28;20045;-73
2022/04/11 08:56:18;;;;;;;7.97;3.85;;;10.20;99.50;;;;;;4989192;28;20427;-70
2022/04/11 08:58:44;;;;;;;7.20;3.65;;;10.20;98.10;;;;;;4988453;28;20037;-70
2022/04/11 09:01:10;;;;;;;7.88;3.25;;;10.40;97.40;;;;;;4987667;28;20105;-70
2022/04/11 09:03:35;;;;;;;6.78;3.28;;;10.60;97.70;;;;;;4987967;28;20643;-71
2022/04/11 09:06:07;;;;;;;7.55;3.08;;;10.70;96.00;;;;;;4983739;28;20035;-70
2022/04/11 09:08:53;;;;;;;9.00;4.00;;;10.40;95.90;;;;;;4983791;28;20124;-71
2022/04/11 09:11:35;;;;;;;6.40;3.33;;;10.70;96.10;;;;;;4982631;28;20050;-72
2022/04/11 09:14:03;;;;;;;;;;;10.80;92.50;;;;;;4987475;28;20034;-71
2022/04/11 09:16:43;;;;;;;6.97;3.65;;;10.90;94.60;;;;;;4986940;28;20302;-71
2022/04/11 09:19:19;;;;;;;8.05;3.55;;;11.00;93.20;;;;;;4988114;28;20022;-73
2022/04/11 09:21:46;;;;;;;4.43;2.70;;;11.10;90.50;;;;;;4986559;28;20022;-68
2022/04/11 09:24:17;;;;;;;7.95;3.08;;;11.10;91.80;;;;;;4985961;28;20495;-70
2022/04/11 09:26:43;;;;;;;5.05;2.97;;;11.20;90.70;;;;;;4988616;28;20027;-71
2022/04/11 09:29:08;;;;;;;5.28;2.80;;;11.20;90.30;;;;;;4986752;28;20030;-72
2022/04/11 09:31:34;;;;;;;6.75;3.10;;;11.40;89.00;;;;;;4983716;28;20061;-71
2022/04/11 09:34:13;;;;;;;6.07;2.95;;;11.20;88.70;;;;;;4982755;28;20073;-73
2022/04/11 09:36:52;;;;;;;6.85;3.00;;;11.40;89.70;;;;;;4984888;28;20509;-71
2022/04/11 09:39:27;;;;;;;6.13;3.20;;;11.70;83.80;;;;;;4985603;28;20026;-70
2022/04/11 09:41:53;;;;;;;9.35;3.75;;;11.90;85.50;;;;;;4987560;28;20034;-70
2022/04/11 09:44:26;;;;;;;6.43;3.30;;;12.00;82.80;;;;;;4979294;28;20042;-71
2022/04/11 09:46:54;;;;;;;6.70;3.25;;;11.90;84.90;;;;;;4986706;28;20495;-73
2022/04/11 09:49:20;;;;;;;8.05;3.78;;;12.20;86.00;;;;;;4986271;28;20484;-70
2022/04/11 09:52:13;;;;;;;7.80;3.83;;;12.00;83.70;;;;;;4989071;28;20073;-69
2022/04/11 09:54:42;;;;;;;8.50;3.05;;;12.30;85.40;;;;;;4985933;28;20031;-70
2022/04/11 09:57:08;;;;;;;6.28;3.10;;;12.60;80.80;;;;;;4984488;28;20041;-71
2022/04/11 09:59:35;;;;;;;6.65;3.63;;;12.50;77.20;;;;;;4980122;28;20033;-70
2022/04/11 10:02:01;;;;;;;6.72;4.03;;;12.60;76.50;;;;;;4986866;28;20081;-71
2022/04/11 10:04:27;;;;;;;9.10;3.85;;;12.40;72.80;;;;;;4974090;28;20178;-70
2022/04/11 10:06:54;;;;;;;7.43;3.47;;;12.60;78.80;;;;;;4985158;28;20030;-72
2022/04/11 10:09:23;;;;;;;6.38;3.47;;;12.70;72.60;;;;;;4986205;28;20486;-69
2022/04/11 10:11:52;;;;;;;5.13;3.10;;;12.90;76.20;;;;;;4987297;28;20141;-69
2022/04/11 10:14:27;;;;;;;4.57;3.00;;;12.80;66.00;;;;;;4984554;28;20395;-70
2022/04/11 10:17:00;;;;;;;6.78;3.03;;;12.90;73.00;;;;;;4986724;28;20308;-70
2022/04/11 10:19:33;;;;;;;6.00;3.55;;;12.90;69.00;;;;;;4986383;28;20026;-70
2022/04/11 10:22:05;;;;;;;8.70;3.72;;;12.90;68.40;;;;;;4986683;28;20037;-70
2022/04/11 10:24:38;;;;;;;4.63;2.92;;;12.90;67.70;;;;;;4985026;28;20368;-70
2022/04/11 10:27:22;;;;;;;6.68;3.90;;;13.10;71.60;;;;;;4979366;28;20438;-70
2022/04/11 10:29:50;;;;;;;6.55;3.08;;;13.30;71.70;;;;;;4981174;28;20038;-69
2022/04/11 10:32:28;;;;;;;7.05;3.65;;;12.90;68.20;;;;;;4982985;28;20633;-70
2022/04/11 10:35:05;;;;;;;7.30;3.13;;;13.00;69.80;;;;;;4985000;28;20030;-70
2022/04/11 10:37:40;;;;;;;8.60;3.08;;;13.30;64.80;;;;;;4986374;28;20430;-68
2022/04/11 10:40:21;;;;;;;7.50;3.60;;;13.40;64.60;;;;;;4977059;28;20452;-68
2022/04/11 10:43:01;;;;;;;5.30;3.00;;;13.20;65.90;;;;;;4984669;28;20096;-69
2022/04/11 10:45:34;;;;;;;6.60;3.30;;;13.30;68.00;;;;;;4989487;28;20070;-70
2022/04/11 10:48:01;;;;;;;5.75;3.20;;;13.50;63.40;;;;;;4988950;28;20031;-68
2022/04/11 10:50:34;;;;;;;4.97;2.72;;;13.20;62.20;;;;;;4991422;28;20041;-67
2022/04/11 10:53:09;;;;;;;7.45;2.97;;;12.90;66.60;;;;;;4987802;28;20040;-69
2022/04/11 10:55:35;;;;;;;6.35;2.90;;;13.40;63.00;;;;;;4989828;28;20034;-66
2022/04/11 10:58:02;;;;;;;6.47;3.33;;;13.60;62.50;;;;;;4990034;28;20624;-68
2022/04/11 11:00:34;;;;;;;7.10;2.97;;;13.90;60.70;;;;;;4990256;28;20058;-68
2022/04/11 11:03:06;;;;;;;6.53;3.10;;;14.10;60.10;;;;;;4988921;28;20042;-68
2022/04/11 11:05:43;;;;;;;6.00;2.88;;;14.30;61.70;;;;;;4991479;28;20030;-69
2022/04/11 11:08:13;;;;;;;6.45;2.85;;;14.40;59.30;;;;;;4984108;28;20046;-68
2022/04/11 11:10:58;;;;;;;6.03;3.13;;;14.40;60.30;;;;;;4987159;28;20034;-69
2022/04/11 11:13:42;;;;;;;6.65;3.40;;;14.30;58.80;;;;;;4987995;28;20050;-70
2022/04/11 11:16:07;;;;;;;5.93;2.95;;;14.20;56.10;;;;;;4985344;28;20038;-69
2022/04/11 11:18:49;;;;;;;8.45;3.13;;;14.10;57.80;;;;;;4982593;28;20467;-69
2022/04/11 11:21:17;;;;;;;5.50;2.67;;;14.20;58.90;;;;;;4981705;28;20018;-70
2022/04/11 11:24:02;;;;;;;4.88;2.67;;;14.40;59.90;;;;;;4990092;28;20026;-70
2022/04/11 11:26:37;;;;;;;7.20;3.40;;;14.50;59.80;;;;;;4989401;28;20056;-72
2022/04/11 11:29:13;;;;;;;4.75;2.65;;;14.70;59.90;;;;;;4988099;28;21431;-70
2022/04/11 11:31:40;;;;;;;5.13;3.00;;;15.20;56.70;;;;;;4989545;28;20053;-70
2022/04/11 11:34:11;;;;;;;6.25;3.35;;;15.10;56.20;;;;;;4988337;28;20034;-70
2022/04/11 11:36:37;;;;;;;8.10;3.15;;;15.30;58.60;;;;;;4988901;28;20130;-71
2022/04/11 11:39:23;;;;;;;5.18;3.05;;;15.70;57.10;;;;;;4989441;28;20034;-70
2022/04/11 11:41:54;;;;;;;6.90;2.72;;;15.20;54.80;;;;;;4989904;28;20093;-70
2022/04/11 11:44:20;;;;;;;9.88;2.90;;;15.20;55.70;;;;;;4982601;28;20060;-69
2022/04/11 11:47:03;;;;;;;5.50;3.40;;;15.30;55.50;;;;;;4991335;28;20052;-69
2022/04/11 11:49:38;;;;;;;6.30;3.55;;;15.40;55.90;;;;;;4984974;28;20026;-71
2022/04/11 11:52:09;;;;;;;6.20;3.13;;;15.30;58.70;;;;;;4989398;28;20029;-71
2022/04/11 11:54:46;;;;;;;5.22;2.80;;;15.40;56.90;;;;;;4982196;28;20031;-70
2022/04/11 11:57:23;;;;;;;4.45;2.65;;;15.40;56.50;;;;;;4988921;28;20073;-71
2022/04/11 11:59:59;;;;;;;5.10;2.95;;;15.70;55.80;;;;;;4989408;28;20030;-70
2022/04/11 12:05:16;;;;;;;4.97;2.70;;;15.50;54.70;;;;;;4988344;28;20049;-70
2022/04/11 12:07:42;;;;;;;6.00;2.72;;;15.50;52.30;;;;;;4989829;28;20499;-70
2022/04/11 12:10:09;;;;;;;4.75;2.40;;;15.70;53.30;;;;;;4989018;28;20058;-71
2022/04/11 12:12:35;;;;;;;5.18;2.75;;;15.70;51.80;;;;;;4990468;28;20522;-71
2022/04/11 12:15:06;;;;;;;4.22;2.80;;;15.30;52.40;;;;;;4986845;28;20034;-70
2022/04/11 12:17:44;;;;;;;7.65;3.17;;;14.80;52.80;;;;;;4983022;28;20092;-69
2022/04/11 12:20:15;;;;;;;6.57;2.75;;;14.90;56.40;;;;;;4988090;28;20034;-69
2022/04/11 12:23:06;;;;;;;5.57;2.60;;;15.30;51.30;;;;;;4988739;28;20046;-70
2022/04/11 12:25:36;;;;;;;6.93;2.88;;;15.60;52.40;;;;;;4988468;28;20038;-70
2022/04/11 12:28:13;;;;;;;6.80;3.10;;;15.80;56.30;;;;;;4987192;28;20052;-70
2022/04/11 12:30:46;;;;;;;5.45;3.10;;;15.30;56.00;;;;;;4982504;28;20498;-69
2022/04/11 12:33:35;;;;;;;5.45;3.50;;;15.50;53.50;;;;;;4990017;28;20114;-69
2022/04/11 12:36:27;;;;;;;7.10;4.10;;;15.20;52.90;;;;;;4984062;28;20034;-69
2022/04/11 12:38:55;;;;;;;6.30;3.10;;;15.60;55.10;;;;;;4977247;28;20038;-70
2022/04/11 12:41:40;;;;;;;12.75;3.08;;;15.50;50.30;;;;;;4989161;28;20022;-70
2022/04/11 12:44:16;;;;;;;8.95;3.25;;;15.60;54.90;;;;;;4985915;28;20092;-70
2022/04/11 12:46:44;;;;;;;7.38;3.70;;;15.90;54.10;;;;;;4985104;28;20045;-68
2022/04/11 12:49:15;;;;;;;5.88;2.83;;;16.00;52.40;;;;;;4988419;28;20038;-69
2022/04/11 12:51:42;;;;;;;8.60;4.22;;;16.10;54.10;;;;;;4980685;28;20041;-71